Accueil
METAR-TAF:

METAR-TAF

Aéroports :

Koné, Nouvelle-Calédonie

Aérodrome de Koné

latitude: 21-03-12S, longitude: 164-50-18E, altitude: 7 m

METAR: absent

Heure: 09:32 (22:32 UTC)

Prévision

Le bulletin a été fait il y a 5 heures et 32 minutes, à 17:00 UTC
Prévision valable du 23 à 18 UTC au 24 à 18 UTC
Vent 2 kt de direction variable
Visibilité 10 km ou plus
Nuages épars à une hauteur de 2000 ft
Probabilité 40% :
Temporairement
du 23 à 18 UTC au 23 à 20 UTC
Visibilité: 4000 m
brume
Evoluant progressivement
du 23 à 22 UTC au 23 à 24 UTC
Vent 12 kt de sud/sud-ouest
Temporairement
du 24 à 00 UTC au 24 à 06 UTC
Quelques nuages à une hauteur de 2000 ft, Cumulus congestus.
averses de pluie
Evoluant progressivement
du 24 à 06 UTC au 24 à 08 UTC
Vent 2 kt de direction variable

TAF: NWWD 231700Z 2318/2418 VRB02KT 9999 SCT020 PROB40 TEMPO 2318/2320 4000 BR BECMG 2322/2324 20012KT TEMPO 2400/2406 SHRA FEW020TCU BECMG 2406/2408 VRB02KT

Observations et prévisions météorologiques de plus de 4000 aéroports (messages METAR et TAF).

Les stations disponibles sont représentées par des disques jaunes et rouges sur la carte.

Passer la souris dessus pour voir le nom de la station.

Cliquer dessus pour voir les observations et prévisions météorologiques.

Pour changer de carte: cliquez sur les boutons verts avec une croix noire pour zoomer, sur le bouton vert avec un tiret pour effectuer un zoom arrière, ou sur les flèches vertes pour les cartes adjacentes.


METAR-TAF: